sensor_id;sensor_type;location;lat;lon;timestamp;pressure;altitude;pressure_sealevel;temperature;humidity
7834;BME280;3962;42.696;23.354;2023-05-18T00:00:26;94663.47;;;12.44;100.00
7834;BME280;3962;42.696;23.354;2023-05-18T00:03:00;94662.34;;;12.38;100.00
7834;BME280;3962;42.696;23.354;2023-05-18T00:05:31;94656.97;;;12.46;100.00
7834;BME280;3962;42.696;23.354;2023-05-18T00:08:03;94673.78;;;12.55;100.00
7834;BME280;3962;42.696;23.354;2023-05-18T00:10:30;94667.47;;;12.48;100.00
7834;BME280;3962;42.696;23.354;2023-05-18T00:13:05;94670.19;;;12.40;100.00
7834;BME280;3962;42.696;23.354;2023-05-18T00:15:40;94663.69;;;12.34;100.00
7834;BME280;3962;42.696;23.354;2023-05-18T00:18:12;94676.53;;;12.31;100.00
7834;BME280;3962;42.696;23.354;2023-05-18T00:20:44;94675.06;;;12.28;100.00
7834;BME280;3962;42.696;23.354;2023-05-18T00:23:20;94672.72;;;12.25;100.00
7834;BME280;3962;42.696;23.354;2023-05-18T00:25:50;94671.06;;;12.24;100.00
7834;BME280;3962;42.696;23.354;2023-05-18T00:28:18;94668.53;;;12.31;100.00
7834;BME280;3962;42.696;23.354;2023-05-18T00:30:53;94666.75;;;12.15;100.00
7834;BME280;3962;42.696;23.354;2023-05-18T00:33:24;94671.41;;;12.21;100.00
7834;BME280;3962;42.696;23.354;2023-05-18T00:35:53;94676.72;;;12.29;100.00
7834;BME280;3962;42.696;23.354;2023-05-18T00:38:25;94678.53;;;12.29;100.00
7834;BME280;3962;42.696;23.354;2023-05-18T00:40:54;94677.25;;;12.25;100.00
7834;BME280;3962;42.696;23.354;2023-05-18T00:43:21;94675.03;;;12.36;100.00
7834;BME280;3962;42.696;23.354;2023-05-18T00:45:55;94679.16;;;12.39;100.00
7834;BME280;3962;42.696;23.354;2023-05-18T00:48:34;94662.75;;;12.19;100.00
7834;BME280;3962;42.696;23.354;2023-05-18T00:51:03;94672.72;;;12.25;100.00
7834;BME280;3962;42.696;23.354;2023-05-18T00:53:32;94669.91;;;12.19;100.00
7834;BME280;3962;42.696;23.354;2023-05-18T00:56:11;94665.03;;;12.30;100.00
7834;BME280;3962;42.696;23.354;2023-05-18T00:58:43;94666.38;;;12.26;100.00
7834;BME280;3962;42.696;23.354;2023-05-18T01:01:12;94663.06;;;12.24;100.00
7834;BME280;3962;42.696;23.354;2023-05-18T01:03:42;94666.72;;;12.23;100.00
7834;BME280;3962;42.696;23.354;2023-05-18T01:06:25;94661.72;;;12.28;100.00
7834;BME280;3962;42.696;23.354;2023-05-18T01:08:57;94666.69;;;12.31;100.00
7834;BME280;3962;42.696;23.354;2023-05-18T01:11:32;94659.66;;;12.38;100.00
7834;BME280;3962;42.696;23.354;2023-05-18T01:14:12;94661.19;;;12.33;100.00
7834;BME280;3962;42.696;23.354;2023-05-18T01:16:54;94664.69;;;12.33;100.00
7834;BME280;3962;42.696;23.354;2023-05-18T01:19:47;94667.84;;;12.37;100.00
7834;BME280;3962;42.696;23.354;2023-05-18T01:22:32;94675.59;;;12.16;100.00
7834;BME280;3962;42.696;23.354;2023-05-18T01:25:17;94676.41;;;12.16;100.00
7834;BME280;3962;42.696;23.354;2023-05-18T01:27:50;94668.94;;;12.12;100.00
7834;BME280;3962;42.696;23.354;2023-05-18T01:30:20;94681.44;;;12.19;100.00
7834;BME280;3962;42.696;23.354;2023-05-18T01:32:49;94675.75;;;12.14;100.00
7834;BME280;3962;42.696;23.354;2023-05-18T01:35:37;94673.94;;;12.07;100.00
7834;BME280;3962;42.696;23.354;2023-05-18T01:38:09;94673.75;;;12.16;100.00
7834;BME280;3962;42.696;23.354;2023-05-18T01:40:51;94675.09;;;12.12;100.00
7834;BME280;3962;42.696;23.354;2023-05-18T01:43:25;94665.78;;;12.08;100.00
7834;BME280;3962;42.696;23.354;2023-05-18T01:46:29;94664.97;;;12.08;100.00
7834;BME280;3962;42.696;23.354;2023-05-18T01:49:03;94663.59;;;12.12;100.00
7834;BME280;3962;42.696;23.354;2023-05-18T01:51:45;94666.94;;;12.06;100.00
7834;BME280;3962;42.696;23.354;2023-05-18T01:54:16;94664.13;;;11.99;100.00
7834;BME280;3962;42.696;23.354;2023-05-18T01:56:48;94671.16;;;11.92;100.00
7834;BME280;3962;42.696;23.354;2023-05-18T01:59:17;94675.66;;;11.92;100.00
7834;BME280;3962;42.696;23.354;2023-05-18T02:02:16;94681.44;;;12.03;100.00
7834;BME280;3962;42.696;23.354;2023-05-18T02:04:44;94677.78;;;12.12;100.00
7834;BME280;3962;42.696;23.354;2023-05-18T02:07:16;94674.25;;;12.20;100.00
7834;BME280;3962;42.696;23.354;2023-05-18T02:09:55;94679.06;;;12.24;100.00
7834;BME280;3962;42.696;23.354;2023-05-18T02:19:29;94681.44;;;12.03;100.00
7834;BME280;3962;42.696;23.354;2023-05-18T02:22:03;94678.09;;;12.09;100.00
7834;BME280;3962;42.696;23.354;2023-05-18T02:24:31;94677.44;;;12.07;100.00
7834;BME280;3962;42.696;23.354;2023-05-18T02:26:58;94685.41;;;12.15;100.00
7834;BME280;3962;42.696;23.354;2023-05-18T02:29:28;94688.75;;;12.17;100.00
7834;BME280;3962;42.696;23.354;2023-05-18T02:32:02;94687.94;;;12.17;100.00
7834;BME280;3962;42.696;23.354;2023-05-18T02:34:31;94686.09;;;12.09;100.00
7834;BME280;3962;42.696;23.354;2023-05-18T02:37:00;94684.78;;;12.13;100.00
7834;BME280;3962;42.696;23.354;2023-05-18T02:39:34;94682.25;;;12.12;100.00
7834;BME280;3962;42.696;23.354;2023-05-18T02:42:01;94685.91;;;12.19;100.00
7834;BME280;3962;42.696;23.354;2023-05-18T02:44:29;94684.41;;;12.16;100.00
7834;BME280;3962;42.696;23.354;2023-05-18T02:46:59;94687.41;;;12.21;100.00
7834;BME280;3962;42.696;23.354;2023-05-18T02:49:27;94694.56;;;12.21;100.00
7834;BME280;3962;42.696;23.354;2023-05-18T02:51:55;94702.22;;;12.32;100.00
7834;BME280;3962;42.696;23.354;2023-05-18T02:54:23;94699.69;;;12.38;100.00
7834;BME280;3962;42.696;23.354;2023-05-18T02:56:49;94693.88;;;12.27;100.00
7834;BME280;3962;42.696;23.354;2023-05-18T02:59:21;94709.75;;;12.20;100.00
7834;BME280;3962;42.696;23.354;2023-05-18T03:01:47;94703.75;;;12.10;100.00
7834;BME280;3962;42.696;23.354;2023-05-18T03:04:14;94718.06;;;12.25;100.00
7834;BME280;3962;42.696;23.354;2023-05-18T03:06:41;94718.88;;;12.34;100.00
7834;BME280;3962;42.696;23.354;2023-05-18T03:09:12;94732.22;;;12.34;100.00
7834;BME280;3962;42.696;23.354;2023-05-18T03:11:40;94729.25;;;12.21;100.00
7834;BME280;3962;42.696;23.354;2023-05-18T03:14:06;94726.25;;;12.24;100.00
7834;BME280;3962;42.696;23.354;2023-05-18T03:16:33;94740.72;;;12.37;100.00
7834;BME280;3962;42.696;23.354;2023-05-18T03:19:03;94736.03;;;12.39;100.00
7834;BME280;3962;42.696;23.354;2023-05-18T03:21:29;94737.41;;;12.35;100.00
7834;BME280;3962;42.696;23.354;2023-05-18T03:24:00;94745.19;;;12.45;100.00
7834;BME280;3962;42.696;23.354;2023-05-18T03:26:29;94746.31;;;12.50;100.00
7834;BME280;3962;42.696;23.354;2023-05-18T03:28:56;94758.47;;;12.61;100.00
7834;BME280;3962;42.696;23.354;2023-05-18T03:31:23;94756.03;;;12.51;100.00
7834;BME280;3962;42.696;23.354;2023-05-18T03:33:50;94750.34;;;12.46;100.00
7834;BME280;3962;42.696;23.354;2023-05-18T03:36:17;94744.69;;;12.41;100.00
7834;BME280;3962;42.696;23.354;2023-05-18T03:38:46;94746.53;;;12.49;100.00
7834;BME280;3962;42.696;23.354;2023-05-18T03:41:13;94744.81;;;12.56;100.00
7834;BME280;3962;42.696;23.354;2023-05-18T03:43:41;94753.03;;;12.46;100.00
7834;BME280;3962;42.696;23.354;2023-05-18T03:46:08;94748.53;;;12.47;100.00
7834;BME280;3962;42.696;23.354;2023-05-18T03:48:35;94755.72;;;12.38;100.00
7834;BME280;3962;42.696;23.354;2023-05-18T03:51:02;94749.03;;;12.34;100.00
7834;BME280;3962;42.696;23.354;2023-05-18T03:53:30;94758.88;;;12.42;100.00
7834;BME280;3962;42.696;23.354;2023-05-18T03:55:58;94767.38;;;12.45;100.00
7834;BME280;3962;42.696;23.354;2023-05-18T03:58:24;94770.59;;;12.79;100.00
7834;BME280;3962;42.696;23.354;2023-05-18T04:00:53;94771.28;;;13.65;100.00
7834;BME280;3962;42.696;23.354;2023-05-18T04:03:20;94777.66;;;14.09;100.00
7834;BME280;3962;42.696;23.354;2023-05-18T04:05:50;94775.75;;;13.95;100.00
7834;BME280;3962;42.696;23.354;2023-05-18T04:08:17;94779.09;;;13.74;100.00
7834;BME280;3962;42.696;23.354;2023-05-18T04:10:44;94784.72;;;14.02;100.00
7834;BME280;3962;42.696;23.354;2023-05-18T04:13:12;94776.56;;;13.81;100.00
7834;BME280;3962;42.696;23.354;2023-05-18T04:15:41;94778.41;;;13.27;100.00
7834;BME280;3962;42.696;23.354;2023-05-18T04:21:34;94796.88;;;13.06;100.00
7834;BME280;3962;42.696;23.354;2023-05-18T04:24:02;94784.31;;;13.15;100.00
7834;BME280;3962;42.696;23.354;2023-05-18T04:26:32;94784.31;;;13.15;100.00
7834;BME280;3962;42.696;23.354;2023-05-18T04:29:03;94784.19;;;13.08;100.00
7834;BME280;3962;42.696;23.354;2023-05-18T04:31:45;94783.75;;;12.89;100.00
7834;BME280;3962;42.696;23.354;2023-05-18T04:34:29;94783.91;;;12.87;100.00
7834;BME280;3962;42.696;23.354;2023-05-18T04:37:00;94782.13;;;12.72;100.00
7834;BME280;3962;42.696;23.354;2023-05-18T04:39:30;94784.38;;;12.91;100.00
7834;BME280;3962;42.696;23.354;2023-05-18T04:41:57;94792.03;;;12.94;100.00
7834;BME280;3962;42.696;23.354;2023-05-18T04:44:25;94792.53;;;13.05;100.00
7834;BME280;3962;42.696;23.354;2023-05-18T04:46:53;94790.81;;;13.12;100.00
7834;BME280;3962;42.696;23.354;2023-05-18T04:49:23;94790.41;;;13.31;100.00
7834;BME280;3962;42.696;23.354;2023-05-18T04:52:06;94812.28;;;13.35;100.00
7834;BME280;3962;42.696;23.354;2023-05-18T04:54:36;94808.47;;;13.21;100.00
7834;BME280;3962;42.696;23.354;2023-05-18T04:57:18;94805.31;;;13.26;100.00
7834;BME280;3962;42.696;23.354;2023-05-18T05:00:04;94814.06;;;13.12;100.00
7834;BME280;3962;42.696;23.354;2023-05-18T05:02:51;94819.19;;;13.13;100.00
7834;BME280;3962;42.696;23.354;2023-05-18T05:05:23;94828.16;;;13.28;100.00
7834;BME280;3962;42.696;23.354;2023-05-18T05:08:07;94826.84;;;13.24;100.00
7834;BME280;3962;42.696;23.354;2023-05-18T05:10:50;94830.09;;;13.04;100.00
7834;BME280;3962;42.696;23.354;2023-05-18T05:13:43;94827.56;;;13.10;100.00
7834;BME280;3962;42.696;23.354;2023-05-18T05:16:24;94839.19;;;13.25;100.00
7834;BME280;3962;42.696;23.354;2023-05-18T05:18:52;94835.25;;;13.05;100.00
7834;BME280;3962;42.696;23.354;2023-05-18T05:21:20;94833.47;;;12.98;100.00
7834;BME280;3962;42.696;23.354;2023-05-18T05:37:02;94852.00;;;12.91;100.00
7834;BME280;3962;42.696;23.354;2023-05-18T05:39:44;94851.53;;;12.80;100.00
7834;BME280;3962;42.696;23.354;2023-05-18T05:42:27;94855.53;;;12.68;100.00
7834;BME280;3962;42.696;23.354;2023-05-18T05:45:13;94854.00;;;12.73;100.00
7834;BME280;3962;42.696;23.354;2023-05-18T05:47:55;94855.19;;;12.79;100.00
7834;BME280;3962;42.696;23.354;2023-05-18T05:50:22;94859.03;;;12.76;100.00
7834;BME280;3962;42.696;23.354;2023-05-18T05:53:09;94860.31;;;12.88;100.00
7834;BME280;3962;42.696;23.354;2023-05-18T05:55:42;94862.19;;;12.88;100.00
7834;BME280;3962;42.696;23.354;2023-05-18T05:58:09;94868.03;;;12.99;100.00
7834;BME280;3962;42.696;23.354;2023-05-18T06:00:39;94859.00;;;13.00;100.00
7834;BME280;3962;42.696;23.354;2023-05-18T06:03:06;94864.47;;;13.07;100.00
7834;BME280;3962;42.696;23.354;2023-05-18T06:05:36;94870.81;;;13.06;100.00
7834;BME280;3962;42.696;23.354;2023-05-18T06:11:34;94861.81;;;12.91;100.00
7834;BME280;3962;42.696;23.354;2023-05-18T06:14:05;94856.84;;;12.80;100.00
7834;BME280;3962;42.696;23.354;2023-05-18T06:16:44;94864.50;;;12.83;100.00
7834;BME280;3962;42.696;23.354;2023-05-18T06:19:28;94870.34;;;12.94;100.00
7834;BME280;3962;42.696;23.354;2023-05-18T06:22:09;94872.53;;;12.75;100.00
7834;BME280;3962;42.696;23.354;2023-05-18T06:24:51;94867.38;;;12.65;100.00
7834;BME280;3962;42.696;23.354;2023-05-18T06:27:25;94879.22;;;12.79;100.00
7834;BME280;3962;42.696;23.354;2023-05-18T06:29:52;94883.53;;;12.88;100.00
7834;BME280;3962;42.696;23.354;2023-05-18T06:32:24;94873.03;;;12.94;100.00
7834;BME280;3962;42.696;23.354;2023-05-18T06:34:52;94881.16;;;13.09;100.00
7834;BME280;3962;42.696;23.354;2023-05-18T06:37:33;94883.28;;;13.21;100.00
7834;BME280;3962;42.696;23.354;2023-05-18T06:40:02;94885.88;;;13.37;100.00
7834;BME280;3962;42.696;23.354;2023-05-18T06:42:52;94894.06;;;13.44;100.00
7834;BME280;3962;42.696;23.354;2023-05-18T06:45:20;94893.00;;;13.53;100.00
7834;BME280;3962;42.696;23.354;2023-05-18T06:48:00;94894.06;;;13.74;100.00
7834;BME280;3962;42.696;23.354;2023-05-18T06:51:02;94896.78;;;13.66;100.00
7834;BME280;3962;42.696;23.354;2023-05-18T06:53:44;94899.34;;;13.82;99.79
7834;BME280;3962;42.696;23.354;2023-05-18T06:56:22;94905.72;;;13.81;99.53
7834;BME280;3962;42.696;23.354;2023-05-18T07:02:29;94919.97;;;14.04;97.79
7834;BME280;3962;42.696;23.354;2023-05-18T07:05:10;94923.22;;;14.14;96.99
7834;BME280;3962;42.696;23.354;2023-05-18T07:07:56;94931.78;;;14.18;94.14
7834;BME280;3962;42.696;23.354;2023-05-18T07:10:26;94931.19;;;14.30;93.54
7834;BME280;3962;42.696;23.354;2023-05-18T07:13:08;94933.84;;;14.30;91.96
7834;BME280;3962;42.696;23.354;2023-05-18T07:16:10;94936.09;;;14.19;90.77
7834;BME280;3962;42.696;23.354;2023-05-18T07:18:57;94935.47;;;14.09;89.74
7834;BME280;3962;42.696;23.354;2023-05-18T07:21:39;94945.13;;;13.87;88.81
7834;BME280;3962;42.696;23.354;2023-05-18T07:24:34;94940.53;;;13.73;89.01
7834;BME280;3962;42.696;23.354;2023-05-18T07:27:19;94948.41;;;13.67;88.25
7834;BME280;3962;42.696;23.354;2023-05-18T07:30:08;94948.53;;;13.73;89.14
7834;BME280;3962;42.696;23.354;2023-05-18T07:32:49;94950.38;;;13.73;88.79
7834;BME280;3962;42.696;23.354;2023-05-18T07:54:46;94974.00;;;13.61;85.87
7834;BME280;3962;42.696;23.354;2023-05-18T07:57:22;94971.50;;;13.60;85.73
7834;BME280;3962;42.696;23.354;2023-05-18T08:00:06;94983.69;;;13.62;85.57
7834;BME280;3962;42.696;23.354;2023-05-18T08:03:03;94983.22;;;13.51;84.74
7834;BME280;3962;42.696;23.354;2023-05-18T08:08:59;94984.75;;;13.45;85.04
7834;BME280;3962;42.696;23.354;2023-05-18T08:15:18;94996.91;;;13.48;84.89
7834;BME280;3962;42.696;23.354;2023-05-18T08:18:00;95005.09;;;13.54;84.69
7834;BME280;3962;42.696;23.354;2023-05-18T08:20:42;95012.13;;;13.55;83.63
7834;BME280;3962;42.696;23.354;2023-05-18T08:23:23;95008.09;;;13.59;84.32
7834;BME280;3962;42.696;23.354;2023-05-18T08:26:05;95020.75;;;13.65;83.84
7834;BME280;3962;42.696;23.354;2023-05-18T08:28:46;95013.59;;;13.66;83.98
7834;BME280;3962;42.696;23.354;2023-05-18T08:41:18;95039.56;;;13.88;83.63
7834;BME280;3962;42.696;23.354;2023-05-18T08:44:02;95034.03;;;13.89;82.47
7834;BME280;3962;42.696;23.354;2023-05-18T08:46:49;95037.88;;;13.95;82.91
7834;BME280;3962;42.696;23.354;2023-05-18T08:49:31;95030.16;;;14.00;83.32
7834;BME280;3962;42.696;23.354;2023-05-18T08:52:17;95040.19;;;14.06;83.51
7834;BME280;3962;42.696;23.354;2023-05-18T08:54:50;95051.03;;;14.04;81.68
7834;BME280;3962;42.696;23.354;2023-05-18T09:06:53;95056.03;;;14.07;81.24
7834;BME280;3962;42.696;23.354;2023-05-18T09:09:34;95063.06;;;14.08;80.23
7834;BME280;3962;42.696;23.354;2023-05-18T09:17:22;95074.91;;;14.22;80.32
7834;BME280;3962;42.696;23.354;2023-05-18T09:20:09;95071.75;;;14.18;80.98
7834;BME280;3962;42.696;23.354;2023-05-18T09:26:18;95077.00;;;14.42;79.47
7834;BME280;3962;42.696;23.354;2023-05-18T09:28:51;95079.25;;;14.53;79.00
7834;BME280;3962;42.696;23.354;2023-05-18T09:31:21;95080.53;;;14.65;80.14
7834;BME280;3962;42.696;23.354;2023-05-18T09:33:52;95077.88;;;14.65;79.35
7834;BME280;3962;42.696;23.354;2023-05-18T09:36:26;95079.34;;;14.68;79.15
7834;BME280;3962;42.696;23.354;2023-05-18T09:39:11;95082.53;;;14.71;78.78
7834;BME280;3962;42.696;23.354;2023-05-18T09:45:15;95083.00;;;14.44;80.33
7834;BME280;3962;42.696;23.354;2023-05-18T09:47:58;95097.34;;;14.51;81.68
7834;BME280;3962;42.696;23.354;2023-05-18T09:50:27;95093.91;;;14.35;82.48
7834;BME280;3962;42.696;23.354;2023-05-18T09:52:59;95089.94;;;14.31;82.29
7834;BME280;3962;42.696;23.354;2023-05-18T09:58:15;95099.00;;;14.14;81.83
7834;BME280;3962;42.696;23.354;2023-05-18T10:04:04;95096.81;;;13.55;87.65
7834;BME280;3962;42.696;23.354;2023-05-18T10:06:48;95099.50;;;13.47;88.16
7834;BME280;3962;42.696;23.354;2023-05-18T10:09:30;95094.97;;;13.55;89.62
7834;BME280;3962;42.696;23.354;2023-05-18T10:12:14;95097.13;;;13.68;89.38
7834;BME280;3962;42.696;23.354;2023-05-18T10:14:55;95096.94;;;13.77;89.20
7834;BME280;3962;42.696;23.354;2023-05-18T10:17:42;95099.25;;;13.88;89.38
7834;BME280;3962;42.696;23.354;2023-05-18T10:57:39;95140.03;;;13.90;84.44
7834;BME280;3962;42.696;23.354;2023-05-18T11:00:24;95137.81;;;14.02;84.60
7834;BME280;3962;42.696;23.354;2023-05-18T11:03:10;95144.84;;;14.03;85.63
7834;BME280;3962;42.696;23.354;2023-05-18T11:06:07;95145.81;;;14.26;86.43
7834;BME280;3962;42.696;23.354;2023-05-18T11:08:57;95145.22;;;14.46;86.15
7834;BME280;3962;42.696;23.354;2023-05-18T11:11:57;95141.78;;;14.68;83.71
7834;BME280;3962;42.696;23.354;2023-05-18T11:44:34;95173.91;;;14.14;84.59
7834;BME280;3962;42.696;23.354;2023-05-18T11:47:17;95180.94;;;14.15;84.68
7834;BME280;3962;42.696;23.354;2023-05-18T11:49:45;95166.53;;;14.16;83.46
7834;BME280;3962;42.696;23.354;2023-05-18T11:52:26;95185.81;;;14.19;83.00
7834;BME280;3962;42.696;23.354;2023-05-18T11:54:57;95184.78;;;14.12;83.09
7834;BME280;3962;42.696;23.354;2023-05-18T11:57:38;95188.97;;;14.15;83.41
7834;BME280;3962;42.696;23.354;2023-05-18T12:08:55;95183.69;;;13.67;87.10
7834;BME280;3962;42.696;23.354;2023-05-18T12:11:36;95188.84;;;13.68;87.45
7834;BME280;3962;42.696;23.354;2023-05-18T12:21:47;95197.38;;;13.56;89.36
7834;BME280;3962;42.696;23.354;2023-05-18T12:24:46;95198.22;;;13.64;89.42
7834;BME280;3962;42.696;23.354;2023-05-18T12:27:22;95198.22;;;13.80;88.39
7834;BME280;3962;42.696;23.354;2023-05-18T12:30:04;95196.38;;;13.89;88.43
7834;BME280;3962;42.696;23.354;2023-05-18T12:32:33;95202.38;;;13.99;88.35
7834;BME280;3962;42.696;23.354;2023-05-18T12:35:04;95202.69;;;13.96;87.26
7834;BME280;3962;42.696;23.354;2023-05-18T12:37:40;95199.84;;;13.97;86.19
7834;BME280;3962;42.696;23.354;2023-05-18T12:40:13;95201.22;;;13.93;87.06
7834;BME280;3962;42.696;23.354;2023-05-18T12:42:50;95205.69;;;14.01;86.51
7834;BME280;3962;42.696;23.354;2023-05-18T12:45:23;95205.03;;;14.07;85.41
7834;BME280;3962;42.696;23.354;2023-05-18T12:47:52;95207.53;;;13.92;85.51
7834;BME280;3962;42.696;23.354;2023-05-18T12:50:20;95208.72;;;13.98;84.69
7834;BME280;3962;42.696;23.354;2023-05-18T12:52:48;95212.88;;;14.00;85.32
7834;BME280;3962;42.696;23.354;2023-05-18T12:55:33;95209.53;;;14.06;85.71
7834;BME280;3962;42.696;23.354;2023-05-18T12:58:05;95207.88;;;14.05;85.44
7834;BME280;3962;42.696;23.354;2023-05-18T13:00:34;95206.38;;;13.95;84.16
7834;BME280;3962;42.696;23.354;2023-05-18T13:03:21;95214.25;;;13.96;84.86
7834;BME280;3962;42.696;23.354;2023-05-18T13:06:10;95214.75;;;13.92;85.04
7834;BME280;3962;42.696;23.354;2023-05-18T13:08:37;95208.75;;;13.82;86.43
7834;BME280;3962;42.696;23.354;2023-05-18T13:11:07;95219.44;;;13.82;87.54
7834;BME280;3962;42.696;23.354;2023-05-18T13:13:56;95212.59;;;13.71;87.73
7834;BME280;3962;42.696;23.354;2023-05-18T13:16:38;95212.25;;;13.66;87.57
7834;BME280;3962;42.696;23.354;2023-05-18T13:19:08;95204.56;;;13.71;88.65
7834;BME280;3962;42.696;23.354;2023-05-18T13:21:37;95206.88;;;13.82;89.76
7834;BME280;3962;42.696;23.354;2023-05-18T13:24:18;95203.56;;;13.80;89.42
7834;BME280;3962;42.696;23.354;2023-05-18T13:26:46;95209.25;;;13.93;89.16
7834;BME280;3962;42.696;23.354;2023-05-18T13:29:13;95217.25;;;14.01;88.54
7834;BME280;3962;42.696;23.354;2023-05-18T13:31:43;95219.59;;;13.88;86.83
7834;BME280;3962;42.696;23.354;2023-05-18T13:34:13;95215.41;;;13.86;86.87
7834;BME280;3962;42.696;23.354;2023-05-18T13:36:41;95216.25;;;13.86;86.92
7834;BME280;3962;42.696;23.354;2023-05-18T13:39:08;95214.25;;;13.88;86.67
7834;BME280;3962;42.696;23.354;2023-05-18T13:41:36;95226.09;;;14.02;87.83
7834;BME280;3962;42.696;23.354;2023-05-18T13:44:22;95229.28;;;13.97;86.60
7834;BME280;3962;42.696;23.354;2023-05-18T13:46:49;95229.13;;;13.83;84.65
7834;BME280;3962;42.696;23.354;2023-05-18T13:49:16;95215.44;;;13.70;83.72
7834;BME280;3962;42.696;23.354;2023-05-18T13:51:43;95212.25;;;13.58;82.99
7834;BME280;3962;42.696;23.354;2023-05-18T13:54:10;95226.63;;;13.73;82.49
7834;BME280;3962;42.696;23.354;2023-05-18T13:56:38;95224.44;;;13.77;81.88
7834;BME280;3962;42.696;23.354;2023-05-18T13:59:13;95228.44;;;13.73;81.87
7834;BME280;3962;42.696;23.354;2023-05-18T14:01:49;95221.28;;;13.73;81.96
7834;BME280;3962;42.696;23.354;2023-05-18T14:04:17;95225.94;;;13.87;82.64
7834;BME280;3962;42.696;23.354;2023-05-18T14:06:44;95232.81;;;13.98;82.05
7834;BME280;3962;42.696;23.354;2023-05-18T14:09:11;95229.63;;;14.02;82.21
7834;BME280;3962;42.696;23.354;2023-05-18T14:11:38;95228.09;;;14.08;82.47
7834;BME280;3962;42.696;23.354;2023-05-18T14:14:04;95226.59;;;14.05;82.28
7834;BME280;3962;42.696;23.354;2023-05-18T14:16:33;95233.97;;;14.03;82.17
7834;BME280;3962;42.696;23.354;2023-05-18T14:19:02;95230.94;;;13.98;81.08
7834;BME280;3962;42.696;23.354;2023-05-18T14:21:29;95228.13;;;14.00;81.13
7834;BME280;3962;42.696;23.354;2023-05-18T14:23:56;95229.28;;;13.89;80.30
7834;BME280;3962;42.696;23.354;2023-05-18T14:26:27;95221.78;;;13.85;80.28
7834;BME280;3962;42.696;23.354;2023-05-18T14:28:55;95228.94;;;13.92;80.73
7834;BME280;3962;42.696;23.354;2023-05-18T14:31:21;95234.13;;;13.94;81.74
7834;BME280;3962;42.696;23.354;2023-05-18T14:33:48;95232.31;;;13.94;82.08
7834;BME280;3962;42.696;23.354;2023-05-18T14:36:19;95232.13;;;13.96;82.60
7834;BME280;3962;42.696;23.354;2023-05-18T14:38:46;95227.78;;;13.95;82.23
7834;BME280;3962;42.696;23.354;2023-05-18T14:41:12;95230.63;;;14.01;81.79
7834;BME280;3962;42.696;23.354;2023-05-18T14:43:39;95238.94;;;14.14;82.21
7834;BME280;3962;42.696;23.354;2023-05-18T14:46:06;95237.78;;;14.09;83.05
7834;BME280;3962;42.696;23.354;2023-05-18T14:48:33;95234.78;;;13.96;83.27
7834;BME280;3962;42.696;23.354;2023-05-18T14:51:00;95243.00;;;14.02;84.04
7834;BME280;3962;42.696;23.354;2023-05-18T14:53:30;95239.66;;;14.08;84.05
7834;BME280;3962;42.696;23.354;2023-05-18T14:55:57;95240.97;;;14.12;84.86
7834;BME280;3962;42.696;23.354;2023-05-18T14:58:28;95244.66;;;14.27;84.90
7834;BME280;3962;42.696;23.354;2023-05-18T15:00:55;95234.28;;;14.32;85.41
7834;BME280;3962;42.696;23.354;2023-05-18T15:03:23;95235.47;;;14.30;85.57
7834;BME280;3962;42.696;23.354;2023-05-18T15:05:49;95233.56;;;14.38;85.63
7834;BME280;3962;42.696;23.354;2023-05-18T15:08:17;95235.94;;;14.33;84.93
7834;BME280;3962;42.696;23.354;2023-05-18T15:10:45;95234.31;;;14.24;86.00
7834;BME280;3962;42.696;23.354;2023-05-18T15:13:12;95230.94;;;14.06;86.49
7834;BME280;3962;42.696;23.354;2023-05-18T15:15:40;95230.44;;;14.03;86.92
7834;BME280;3962;42.696;23.354;2023-05-18T15:18:07;95224.75;;;14.14;86.27
7834;BME280;3962;42.696;23.354;2023-05-18T15:20:35;95214.38;;;14.03;87.38
7834;BME280;3962;42.696;23.354;2023-05-18T15:23:03;95221.41;;;14.04;87.12
7834;BME280;3962;42.696;23.354;2023-05-18T15:25:30;95213.75;;;13.93;87.75
7834;BME280;3962;42.696;23.354;2023-05-18T15:28:00;95209.91;;;13.95;88.78
7834;BME280;3962;42.696;23.354;2023-05-18T15:30:27;95219.22;;;14.07;88.56
7834;BME280;3962;42.696;23.354;2023-05-18T15:32:54;95230.94;;;14.06;87.80
7834;BME280;3962;42.696;23.354;2023-05-18T15:35:24;95231.78;;;14.15;87.23
7834;BME280;3962;42.696;23.354;2023-05-18T15:37:51;95234.28;;;14.16;86.96
7834;BME280;3962;42.696;23.354;2023-05-18T15:40:19;95231.59;;;14.00;86.25
7834;BME280;3962;42.696;23.354;2023-05-18T15:42:46;95237.81;;;14.01;88.14
7834;BME280;3962;42.696;23.354;2023-05-18T15:45:20;95232.63;;;13.83;86.37
7834;BME280;3962;42.696;23.354;2023-05-18T15:47:47;95235.16;;;13.77;86.90
7834;BME280;3962;42.696;23.354;2023-05-18T15:50:14;95240.34;;;13.78;86.87
7834;BME280;3962;42.696;23.354;2023-05-18T15:52:41;95246.50;;;13.79;88.80
7834;BME280;3962;42.696;23.354;2023-05-18T15:55:10;95238.97;;;13.82;89.61
7834;BME280;3962;42.696;23.354;2023-05-18T15:57:39;95236.97;;;13.68;88.01
7834;BME280;3962;42.696;23.354;2023-05-18T16:00:17;95242.50;;;13.75;88.40
7834;BME280;3962;42.696;23.354;2023-05-18T16:02:57;95230.16;;;13.74;88.70
7834;BME280;3962;42.696;23.354;2023-05-18T16:05:41;95222.63;;;13.77;88.53
7834;BME280;3962;42.696;23.354;2023-05-18T16:08:16;95229.66;;;13.78;89.77
7834;BME280;3962;42.696;23.354;2023-05-18T16:10:53;95218.44;;;13.83;89.02
7834;BME280;3962;42.696;23.354;2023-05-18T16:13:37;95224.94;;;13.88;88.74
7834;BME280;3962;42.696;23.354;2023-05-18T16:16:22;95228.94;;;13.92;86.84
7834;BME280;3962;42.696;23.354;2023-05-18T16:19:03;95232.31;;;13.86;87.08
7834;BME280;3962;42.696;23.354;2023-05-18T16:21:31;95240.34;;;13.94;87.02
7834;BME280;3962;42.696;23.354;2023-05-18T16:24:02;95258.06;;;13.79;87.38
7834;BME280;3962;42.696;23.354;2023-05-18T16:26:43;95263.88;;;13.59;88.58
7834;BME280;3962;42.696;23.354;2023-05-18T16:29:11;95255.34;;;13.47;89.91
7834;BME280;3962;42.696;23.354;2023-05-18T16:31:49;95259.19;;;13.45;90.30
7834;BME280;3962;42.696;23.354;2023-05-18T16:34:17;95260.50;;;13.41;89.78
7834;BME280;3962;42.696;23.354;2023-05-18T16:36:44;95274.38;;;13.36;89.82
7834;BME280;3962;42.696;23.354;2023-05-18T16:39:25;95263.69;;;13.36;90.79